createdAt,value
2022-11-03T00:01:44.294Z,4.40
2022-11-03T00:04:13.149Z,4.30
2022-11-03T00:06:41.942Z,5.00
2022-11-03T00:09:11.596Z,4.80
2022-11-03T00:11:40.052Z,4.07
2022-11-03T00:14:09.363Z,4.50
2022-11-03T00:16:39.709Z,4.87
2022-11-03T00:19:08.964Z,4.87
2022-11-03T00:21:36.398Z,4.00
2022-11-03T00:24:04.124Z,4.50
2022-11-03T00:26:33.623Z,4.50
2022-11-03T00:29:06.024Z,4.40
2022-11-03T00:31:34.693Z,4.23
2022-11-03T00:34:03.231Z,3.80
2022-11-03T00:36:33.014Z,4.40
2022-11-03T00:39:00.354Z,3.90
2022-11-03T00:41:27.671Z,3.90
2022-11-03T00:43:55.611Z,3.97
2022-11-03T00:46:23.458Z,4.00
2022-11-03T00:48:50.896Z,3.83
2022-11-03T00:51:20.943Z,3.90
2022-11-03T00:53:52.884Z,3.93
2022-11-03T00:56:24.331Z,3.60
2022-11-03T00:58:52.390Z,3.80
2022-11-03T01:01:22.132Z,3.77
2022-11-03T01:04:10.327Z,3.27
2022-11-03T01:06:51.796Z,4.33
2022-11-03T01:09:19.574Z,3.27
2022-11-03T01:11:59.348Z,3.47
2022-11-03T01:14:29.531Z,3.50
2022-11-03T01:16:56.870Z,3.57
2022-11-03T01:19:25.279Z,3.00
2022-11-03T01:21:56.156Z,3.30
2022-11-03T01:24:23.102Z,3.40
2022-11-03T01:26:50.769Z,3.13
2022-11-03T01:29:17.950Z,2.70
2022-11-03T01:31:45.535Z,3.40
2022-11-03T01:34:16.986Z,3.60
2022-11-03T01:36:45.338Z,3.07
2022-11-03T01:39:21.335Z,3.33
2022-11-03T01:41:50.967Z,3.20
2022-11-03T01:44:17.777Z,2.63
2022-11-03T01:46:48.088Z,3.07
2022-11-03T01:49:27.235Z,3.30
2022-11-03T01:52:08.832Z,3.13
2022-11-03T01:54:37.878Z,3.43
2022-11-03T01:57:15.376Z,2.90
2022-11-03T01:59:44.810Z,3.43
2022-11-03T02:02:12.027Z,3.13
2022-11-03T02:04:40.593Z,3.70
2022-11-03T02:07:27.759Z,3.10
2022-11-03T02:09:54.972Z,3.53
2022-11-03T02:12:22.681Z,3.33
2022-11-03T02:15:03.759Z,3.77
2022-11-03T02:17:32.910Z,3.93
2022-11-03T02:20:01.861Z,3.77
2022-11-03T02:22:43.604Z,4.37
2022-11-03T02:25:16.851Z,4.63
2022-11-03T02:27:44.174Z,4.07
2022-11-03T02:30:11.744Z,4.00
2022-11-03T02:32:52.835Z,5.00
2022-11-03T02:35:28.322Z,4.93
2022-11-03T02:37:59.309Z,4.63
2022-11-03T02:40:32.696Z,4.80
2022-11-03T02:43:02.076Z,4.83
2022-11-03T02:45:30.399Z,4.97
2022-11-03T02:48:01.746Z,5.00
2022-11-03T02:50:31.552Z,5.30
2022-11-03T02:52:58.964Z,5.83
2022-11-03T02:55:41.023Z,5.77
2022-11-03T02:58:34.162Z,5.37
2022-11-03T03:01:15.244Z,5.43
2022-11-03T03:03:53.091Z,5.27
2022-11-03T03:06:34.054Z,4.93
2022-11-03T03:09:05.104Z,5.40
2022-11-03T03:11:40.292Z,5.80
2022-11-03T03:14:12.265Z,6.40
2022-11-03T03:16:47.668Z,5.83
2022-11-03T03:19:28.754Z,5.73
2022-11-03T03:22:01.325Z,6.07
2022-11-03T03:24:36.401Z,5.90
2022-11-03T03:27:05.979Z,6.50
2022-11-03T03:29:47.482Z,6.73
2022-11-03T03:32:19.120Z,6.23
2022-11-03T03:34:48.607Z,6.73
2022-11-03T03:37:17.687Z,5.87
2022-11-03T03:39:51.709Z,6.03
2022-11-03T03:42:21.804Z,6.50
2022-11-03T03:44:50.359Z,6.60
2022-11-03T03:47:36.167Z,5.60
2022-11-03T03:50:03.581Z,6.17
2022-11-03T03:52:33.443Z,6.43
2022-11-03T03:55:00.827Z,6.07
2022-11-03T03:57:31.401Z,6.67
2022-11-03T03:59:58.520Z,7.20
2022-11-03T04:02:25.473Z,6.30
2022-11-03T04:04:52.858Z,6.20
2022-11-03T04:07:42.613Z,6.53
2022-11-03T04:10:11.118Z,6.30
2022-11-03T04:12:59.640Z,7.57
2022-11-03T04:15:45.537Z,7.20
2022-11-03T04:18:31.144Z,6.57
2022-11-03T04:21:16.762Z,6.63
2022-11-03T04:23:43.747Z,6.73
2022-11-03T04:26:14.421Z,6.80
2022-11-03T04:28:42.419Z,6.30
2022-11-03T04:31:13.640Z,6.90
2022-11-03T04:33:41.698Z,6.20
2022-11-03T04:36:25.870Z,6.70
2022-11-03T04:38:53.223Z,6.13
2022-11-03T04:41:31.773Z,6.53
2022-11-03T04:43:59.167Z,6.23
2022-11-03T04:46:28.531Z,6.13
2022-11-03T04:48:59.539Z,5.90
2022-11-03T04:51:30.979Z,6.20
2022-11-03T04:54:21.550Z,6.20
2022-11-03T04:56:50.066Z,7.03
2022-11-03T04:59:17.624Z,7.80
2022-11-03T05:01:46.057Z,7.80
2022-11-03T05:04:18.863Z,6.70
2022-11-03T05:06:53.579Z,7.23
2022-11-03T05:09:26.882Z,7.50
2022-11-03T05:11:55.411Z,6.70
2022-11-03T05:14:31.512Z,6.60
2022-11-03T05:17:00.264Z,7.83
2022-11-03T05:19:37.662Z,7.40
2022-11-03T05:22:05.829Z,7.17
2022-11-03T05:24:33.428Z,6.00
2022-11-03T05:27:00.620Z,6.93
2022-11-03T05:29:37.946Z,7.60
2022-11-03T05:32:21.420Z,6.17
2022-11-03T05:34:51.151Z,6.83
2022-11-03T05:37:27.402Z,7.07
2022-11-03T05:40:00.918Z,6.83
2022-11-03T05:42:33.874Z,6.87
2022-11-03T05:45:04.476Z,7.10
2022-11-03T05:47:39.701Z,7.67
2022-11-03T05:50:31.312Z,7.13
2022-11-03T05:53:21.378Z,6.80
2022-11-03T05:55:48.349Z,7.40
2022-11-03T05:58:22.359Z,6.70
2022-11-03T06:00:49.402Z,7.10
2022-11-03T06:03:28.534Z,7.10
2022-11-03T06:06:38.245Z,6.83
2022-11-03T06:09:35.133Z,7.23
2022-11-03T06:12:04.925Z,6.67
2022-11-03T06:14:33.063Z,7.30
2022-11-03T06:17:07.244Z,7.43
2022-11-03T06:19:44.693Z,7.23
2022-11-03T06:22:20.683Z,6.23
2022-11-03T06:25:45.695Z,7.40
2022-11-03T06:28:24.050Z,6.53
2022-11-03T06:30:52.289Z,6.67
2022-11-03T06:33:34.360Z,6.63
2022-11-03T06:36:16.628Z,6.33
2022-11-03T06:38:50.524Z,7.00
2022-11-03T06:41:24.574Z,6.27
2022-11-03T06:47:26.502Z,7.07
2022-11-03T06:49:57.783Z,6.43
2022-11-03T06:52:36.504Z,5.70
2022-11-03T07:10:22.206Z,5.90
2022-11-03T07:13:06.741Z,6.20
2022-11-03T07:16:04.147Z,5.67
2022-11-03T07:18:35.674Z,5.67
2022-11-03T07:21:14.806Z,5.83
2022-11-03T07:23:46.242Z,5.60
2022-11-03T07:26:14.258Z,5.90
2022-11-03T07:28:41.773Z,5.77
2022-11-03T07:36:08.287Z,7.10
2022-11-03T07:38:29.342Z,7.23
2022-11-03T07:40:59.079Z,5.53
2022-11-03T07:43:25.911Z,5.57
2022-11-03T07:45:55.027Z,5.67
2022-11-03T07:48:36.190Z,5.50
2022-11-03T07:51:38.735Z,5.00
2022-11-03T07:54:13.206Z,5.30
2022-11-03T07:56:43.751Z,5.37
2022-11-03T07:59:13.699Z,31.47
2022-11-03T08:01:44.011Z,16.53
2022-11-03T08:04:17.029Z,6.90
2022-11-03T08:07:11.200Z,5.80
2022-11-03T08:13:01.085Z,5.67
2022-11-03T08:15:28.521Z,5.33
2022-11-03T08:44:08.695Z,4.20
2022-11-03T08:46:43.471Z,5.03
2022-11-03T08:49:10.362Z,5.27
2022-11-03T08:51:41.533Z,4.83
2022-11-03T08:54:25.887Z,4.60
2022-11-03T08:57:32.256Z,4.17
2022-11-03T08:59:59.378Z,4.67
2022-11-03T09:02:26.609Z,4.13
2022-11-03T09:04:53.551Z,3.90
2022-11-03T09:07:21.175Z,4.43
2022-11-03T09:12:44.298Z,4.70
2022-11-03T09:15:17.364Z,3.70
2022-11-03T09:17:45.708Z,4.00
2022-11-03T09:20:13.246Z,4.07
2022-11-03T09:22:40.232Z,4.53
2022-11-03T09:25:08.104Z,52.73
2022-11-03T09:27:35.111Z,4.73
2022-11-03T09:30:53.844Z,5.20
2022-11-03T09:33:29.312Z,3.93
2022-11-03T09:35:56.590Z,3.40
2022-11-03T09:38:23.475Z,3.70
2022-11-03T09:40:50.744Z,4.60
2022-11-03T09:43:18.434Z,3.67
2022-11-03T09:45:46.635Z,4.20
2022-11-03T09:52:21.531Z,4.20
2022-11-03T09:54:50.740Z,4.17
2022-11-03T09:57:18.987Z,3.43
2022-11-03T09:59:49.866Z,3.53
2022-11-03T10:02:48.353Z,3.67
2022-11-03T10:05:23.056Z,3.37
2022-11-03T10:12:49.398Z,3.57
2022-11-03T10:15:18.228Z,3.00
2022-11-03T10:17:46.611Z,2.97
2022-11-03T10:20:16.657Z,2.70
2022-11-03T10:22:45.560Z,2.70
2022-11-03T11:27:39.614Z,2.50
2022-11-03T11:30:50.311Z,1.80
2022-11-03T11:34:09.883Z,2.07
2022-11-03T11:36:38.824Z,2.00
2022-11-03T11:39:20.727Z,1.90
2022-11-03T11:42:21.109Z,2.00
2022-11-03T11:44:59.257Z,1.73
2022-11-03T11:47:50.137Z,1.10
2022-11-03T11:50:38.544Z,1.70
2022-11-03T11:53:20.217Z,1.90
2022-11-03T11:55:52.390Z,1.73
2022-11-03T11:58:42.696Z,1.70
2022-11-03T13:26:34.244Z,2.70
2022-11-03T13:29:01.594Z,1.37
2022-11-03T13:31:28.742Z,1.57
2022-11-03T13:33:56.059Z,1.57
2022-11-03T13:36:23.168Z,1.47
2022-11-03T13:38:50.422Z,0.93
2022-11-03T13:41:20.419Z,1.30
2022-11-03T13:44:30.139Z,1.70
2022-11-03T13:46:57.128Z,1.67
2022-11-03T13:52:12.087Z,1.70
2022-11-03T14:00:22.558Z,2.53
2022-11-03T14:05:45.047Z,1.53
2022-11-03T14:08:11.982Z,1.53
2022-11-03T14:10:39.161Z,2.70
2022-11-03T14:13:06.368Z,1.67
2022-11-03T14:15:34.653Z,1.40
2022-11-03T14:18:05.070Z,1.70
2022-11-03T14:21:19.487Z,1.50
2022-11-03T14:23:49.579Z,1.33
2022-11-03T14:26:23.723Z,1.43
2022-11-03T14:29:18.663Z,1.97
2022-11-03T14:31:48.640Z,1.67
2022-11-03T15:08:42.133Z,2.30
2022-11-03T15:11:10.495Z,2.20
2022-11-03T15:13:43.974Z,1.90
2022-11-03T15:19:18.944Z,2.30
2022-11-03T15:21:51.499Z,3.23
2022-11-03T15:27:05.933Z,1.87
2022-11-03T15:29:32.849Z,2.20
2022-11-03T15:32:00.025Z,1.67
2022-11-03T15:34:35.546Z,2.20
2022-11-03T15:37:15.706Z,2.80
2022-11-03T15:39:42.678Z,2.93
2022-11-03T15:42:09.897Z,2.70
2022-11-03T15:44:36.789Z,2.90
2022-11-03T15:47:04.108Z,3.10
2022-11-03T15:49:31.011Z,2.70
2022-11-03T15:52:22.535Z,3.00
2022-11-03T15:54:49.584Z,2.87
2022-11-03T15:57:16.926Z,3.50
2022-11-03T15:59:44.050Z,2.87
2022-11-03T16:02:27.695Z,2.90
2022-11-03T16:04:58.389Z,2.77
2022-11-03T16:07:26.137Z,3.07
2022-11-03T16:10:09.820Z,2.87
2022-11-03T16:13:02.668Z,2.83
2022-11-03T16:15:29.822Z,3.00
2022-11-03T18:41:34.023Z,21.37
2022-11-03T18:44:19.120Z,14.77
2022-11-03T18:46:48.976Z,13.63
2022-11-03T18:49:16.232Z,13.07
2022-11-03T18:52:03.967Z,17.07
2022-11-03T18:54:35.043Z,17.93
2022-11-03T18:57:02.970Z,15.50
2022-11-03T18:59:36.974Z,17.37
2022-11-03T19:02:15.252Z,17.07
2022-11-03T19:04:42.508Z,15.07
2022-11-03T19:07:25.911Z,13.33
2022-11-03T19:09:53.317Z,13.50
2022-11-03T19:12:20.338Z,15.03
2022-11-03T19:14:48.861Z,15.37
2022-11-03T19:17:25.624Z,15.77
2022-11-03T19:19:53.908Z,15.57
2022-11-03T19:22:22.633Z,14.03
2022-11-03T19:24:50.004Z,16.43
2022-11-03T19:27:26.928Z,15.10
2022-11-03T19:29:55.866Z,15.87
2022-11-03T19:32:24.814Z,15.63
2022-11-03T19:35:03.071Z,15.50
2022-11-03T19:37:35.385Z,15.97
2022-11-03T19:40:09.515Z,14.50
2022-11-03T19:42:36.874Z,14.90
2022-11-03T19:45:07.935Z,13.97
2022-11-03T19:47:39.794Z,13.70
2022-11-03T19:50:21.224Z,14.93
2022-11-03T19:52:50.088Z,14.87
2022-11-03T19:55:18.867Z,14.97
2022-11-03T19:57:45.976Z,15.47
2022-11-03T20:00:17.836Z,16.13
2022-11-03T20:02:45.814Z,16.53
2022-11-03T20:05:13.276Z,19.17
2022-11-03T20:07:42.534Z,15.00
2022-11-03T20:10:16.587Z,15.33
2022-11-03T20:12:45.835Z,15.37
2022-11-03T20:15:19.068Z,15.90
2022-11-03T20:17:47.479Z,16.13
2022-11-03T20:20:16.702Z,17.23
2022-11-03T20:22:49.515Z,15.27
2022-11-03T20:25:29.354Z,17.03
2022-11-03T20:27:58.128Z,15.17
2022-11-03T20:30:26.783Z,17.00
2022-11-03T20:32:54.467Z,16.07
2022-11-03T20:35:24.524Z,16.53
2022-11-03T20:37:56.249Z,16.30
2022-11-03T20:40:26.308Z,17.00
2022-11-03T20:42:59.268Z,15.87
2022-11-03T20:45:35.734Z,17.53
2022-11-03T20:48:03.301Z,16.67
2022-11-03T20:50:31.351Z,15.60
2022-11-03T20:52:59.348Z,16.07
2022-11-03T20:55:27.335Z,16.27
2022-11-03T20:57:55.441Z,16.33
2022-11-03T21:00:27.057Z,16.23
2022-11-03T21:03:01.688Z,17.30
2022-11-03T21:05:29.469Z,15.93
2022-11-03T21:07:56.505Z,15.77
2022-11-03T21:10:24.199Z,16.57
2022-11-03T21:12:57.592Z,15.47
2022-11-03T21:16:03.799Z,16.07
2022-11-03T21:18:55.944Z,19.23
2022-11-03T21:21:23.542Z,15.87
2022-11-03T21:23:50.420Z,15.83
2022-11-03T21:26:17.590Z,16.77
2022-11-03T21:28:44.439Z,16.43
2022-11-03T21:31:13.630Z,15.93
2022-11-03T21:33:40.568Z,16.50
2022-11-03T21:36:13.425Z,15.50
2022-11-03T21:38:41.476Z,14.97
2022-11-03T21:41:27.069Z,16.97
2022-11-03T21:44:12.325Z,16.97
2022-11-03T21:46:39.968Z,15.93
2022-11-03T21:49:25.563Z,16.83
2022-11-03T21:51:52.691Z,17.67
2022-11-03T21:54:19.732Z,16.73
2022-11-03T21:56:47.553Z,16.30
2022-11-03T21:59:14.449Z,16.10
2022-11-03T22:01:41.672Z,16.47
2022-11-03T22:04:08.647Z,17.40
2022-11-03T22:06:35.865Z,16.23
2022-11-03T22:09:03.005Z,15.23
2022-11-03T22:11:30.228Z,15.80
2022-11-03T22:13:59.497Z,16.23
2022-11-03T22:16:36.751Z,16.17
2022-11-03T22:19:23.940Z,16.13
2022-11-03T22:22:09.723Z,15.90
2022-11-03T22:24:55.754Z,17.63
2022-11-03T22:27:23.492Z,15.60
2022-11-03T22:30:09.430Z,14.87
2022-11-03T22:32:37.255Z,15.33
2022-11-03T22:35:24.861Z,16.53
2022-11-03T22:38:41.395Z,14.13
2022-11-03T22:41:27.284Z,13.50
2022-11-03T22:44:13.282Z,17.00
2022-11-03T22:46:40.268Z,15.07
2022-11-03T22:49:07.421Z,14.87
2022-11-03T22:51:34.420Z,13.97
2022-11-03T22:54:11.568Z,17.47
2022-11-03T22:56:39.727Z,18.87
2022-11-03T22:59:07.855Z,18.80
2022-11-03T23:01:35.806Z,15.20
2022-11-03T23:04:06.912Z,13.17
2022-11-03T23:06:38.986Z,13.10
2022-11-03T23:09:07.634Z,13.30
2022-11-03T23:11:35.237Z,12.70
2022-11-03T23:14:08.553Z,13.23
2022-11-03T23:16:39.008Z,12.97
2022-11-03T23:19:25.520Z,13.53
2022-11-03T23:21:53.536Z,13.27
2022-11-03T23:24:42.325Z,12.93
2022-11-03T23:27:13.210Z,11.87
2022-11-03T23:29:40.398Z,12.10
2022-11-03T23:32:07.599Z,13.83
2022-11-03T23:34:37.162Z,12.83
2022-11-03T23:37:04.347Z,12.50
2022-11-03T23:39:31.206Z,11.23
2022-11-03T23:41:58.164Z,13.77
2022-11-03T23:44:25.428Z,12.13
2022-11-03T23:47:11.241Z,13.10
2022-11-03T23:49:38.565Z,13.07
2022-11-03T23:52:05.419Z,12.33
2022-11-03T23:54:32.608Z,12.27
2022-11-03T23:57:18.227Z,12.30
